Powderville, MT (59345)

8:58 AM MST on February 08, 2016 (GMT -0700)
Wiley | | Change Station
CLOSE
Current Station
Airport
Location: Miles City,
Elevation: 2628 ft
Nearby Weather Stations

Elev 2628 ft 46.43 °N, 105.88 °W | Updated 5 minutes ago

Overcast
Overcast
29 °F
Feels Like 23 °F
N
6
Wind Variable Wind from SW

Today
High -- | Low -- °F
--% Chance of Precip.
Yesterday
High -- | Low -- °F
Precip. -- in
Pressure 30.50 in
Visibility 10.0 miles
Clouds Mostly Cloudy 7000 ft
Overcast 8500 ft
Windchill 23 °F
Dew Point 17 °F
Humidity 61%
Rainfall 0.00 in
Snow Depth Not available.
7:14 AM 5:16 PM
New Moon, 0% visible
METAR KMLS 081553Z AUTO 23005KT 10SM BKN070 OVC085 M02/M08 A3041 RMK AO2 SLP326 T10171083
Pressure 30.50 in
Visibility 10.0 miles
Clouds Mostly Cloudy 7000 ft
Overcast 8500 ft
Windchill 23 °F
Dew Point 17 °F
Humidity 61%
Rainfall 0.00 in
Snow Depth Not available.
7:14 AM 5:16 PM
New Moon, 0% visible
METAR KMLS 081553Z AUTO 23005KT 10SM BKN070 OVC085 M02/M08 A3041 RMK AO2 SLP326 T10171083

10-Day Weather Forecast

Almanac

Astronomy

Feb. 08, 2016 Rise Set
Actual Time
Civil Twilight
Nautical Twilight
Astronomical Twilight
Moon
Length of Visible Light
Length of Day
Tomorrow will be .
, % of the Moon is Illuminated

Today's Extremes

State Highs State Lows

Community

WunderPhotos

Upload Photos

1,891,440 photos uploaded!

WunderBlog® & News

Nearby

Air Quality

  Air Quality AQ Index Pollutant
Not available.

Snow Depth

Station Depth Elevation

Earthquake Activity

City Distance Mag. Time & Date
Minimum magnitude displayed is 2.5.

Coastal Water Temperatures

Place Temperature

Stations

Nearby Weather Stations

Station Location Temp. Windchill Dew Point Humidity Wind Precip. Elev Updated Type
                   

Watches & Warnings

There are currently no watches in effect.